Aviation Digital Data Service (ADDS)

Output produced by METARs form (2309 UTC 19 July 2018)
found at http://aviationweather.gov/adds/metars/
 
KASD 192253Z AUTO VRB04KT 10SM SCT055 BKN070 26/23 A2990 RMK AO2 RAE44 SLP125 P0006 T02610233 TSNO